createdAt,value
2023-04-12T00:00:48.264Z,9.47
2023-04-12T00:03:21.067Z,7.63
2023-04-12T00:05:54.477Z,6.67
2023-04-12T00:08:32.819Z,5.70
2023-04-12T00:11:00.691Z,5.60
2023-04-12T00:13:27.466Z,5.90
2023-04-12T00:15:54.024Z,5.43
2023-04-12T00:18:24.814Z,10.43
2023-04-12T00:20:52.409Z,5.63
2023-04-12T00:23:18.927Z,6.40
2023-04-12T00:25:45.429Z,6.47
2023-04-12T00:28:12.031Z,5.40
2023-04-12T00:30:38.707Z,5.57
2023-04-12T00:33:05.483Z,7.13
2023-04-12T00:35:32.091Z,5.17
2023-04-12T00:37:58.710Z,6.00
2023-04-12T00:40:25.352Z,6.00
2023-04-12T00:42:51.856Z,6.10
2023-04-12T00:45:18.379Z,6.73
2023-04-12T00:47:44.999Z,7.50
2023-04-12T00:50:11.842Z,5.70
2023-04-12T00:52:40.071Z,6.33
2023-04-12T00:55:07.533Z,6.57
2023-04-12T00:57:36.957Z,5.53
2023-04-12T01:00:13.165Z,5.87
2023-04-12T01:02:48.307Z,5.80
2023-04-12T01:05:21.711Z,5.30
2023-04-12T01:08:16.196Z,5.87
2023-04-12T01:11:14.026Z,5.87
2023-04-12T01:13:54.737Z,5.17
2023-04-12T01:16:35.705Z,5.43
2023-04-12T01:19:12.657Z,5.37
2023-04-12T01:22:21.256Z,5.57
2023-04-12T01:24:57.409Z,5.90
2023-04-12T01:27:54.152Z,6.67
2023-04-12T01:30:21.183Z,6.23
2023-04-12T01:32:52.617Z,6.80
2023-04-12T01:35:21.521Z,6.00
2023-04-12T01:37:48.315Z,5.77
2023-04-12T01:40:15.353Z,6.77
2023-04-12T01:42:42.066Z,5.47
2023-04-12T01:45:09.037Z,7.53
2023-04-12T01:47:35.935Z,5.47
2023-04-12T01:50:19.085Z,5.67
2023-04-12T01:52:56.988Z,5.53
2023-04-12T01:55:25.468Z,5.77
2023-04-12T01:57:53.657Z,5.80
2023-04-12T02:00:20.738Z,6.00
2023-04-12T02:02:47.524Z,5.47
2023-04-12T02:05:14.831Z,6.10
2023-04-12T02:07:42.044Z,5.33
2023-04-12T02:10:14.001Z,5.10
2023-04-12T02:12:41.109Z,5.30
2023-04-12T02:15:08.372Z,6.77
2023-04-12T02:17:37.156Z,5.67
2023-04-12T02:20:11.933Z,7.53
2023-04-12T02:22:38.527Z,5.57
2023-04-12T02:25:06.377Z,5.80
2023-04-12T02:27:32.910Z,5.57
2023-04-12T02:29:59.535Z,6.03
2023-04-12T02:32:26.112Z,5.50
2023-04-12T02:34:52.650Z,5.50
2023-04-12T02:37:21.765Z,5.63
2023-04-12T02:39:48.304Z,6.00
2023-04-12T02:42:14.822Z,5.03
2023-04-12T02:44:43.367Z,5.00
2023-04-12T02:47:09.863Z,5.40
2023-04-12T02:49:36.371Z,7.07
2023-04-12T02:52:03.308Z,5.27
2023-04-12T02:54:29.876Z,6.27
2023-04-12T02:56:56.539Z,5.83
2023-04-12T02:59:25.053Z,6.57
2023-04-12T03:01:51.663Z,5.30
2023-04-12T03:04:18.384Z,6.53
2023-04-12T03:06:52.522Z,5.70
2023-04-12T03:09:19.501Z,5.70
2023-04-12T03:11:47.120Z,5.23
2023-04-12T03:14:13.961Z,4.93
2023-04-12T03:16:40.619Z,5.20
2023-04-12T03:19:07.476Z,5.93
2023-04-12T03:21:33.965Z,5.37
2023-04-12T03:24:00.757Z,5.40
2023-04-12T03:26:27.715Z,4.77
2023-04-12T03:29:08.927Z,4.73
2023-04-12T03:31:37.032Z,5.27
2023-04-12T03:34:03.699Z,7.33
2023-04-12T03:36:31.302Z,5.63
2023-04-12T03:38:57.860Z,5.27
2023-04-12T03:41:25.414Z,5.37
2023-04-12T03:43:51.971Z,5.50
2023-04-12T03:46:18.779Z,5.50
2023-04-12T03:48:45.403Z,5.43
2023-04-12T03:51:12.141Z,5.20
2023-04-12T03:53:39.149Z,5.13
2023-04-12T03:56:06.123Z,5.67
2023-04-12T03:58:33.882Z,5.20
2023-04-12T04:01:06.661Z,5.40
2023-04-12T04:03:35.175Z,4.77
2023-04-12T04:06:02.594Z,5.13
2023-04-12T04:08:30.114Z,5.60
2023-04-12T04:11:00.198Z,5.43
2023-04-12T04:13:26.714Z,5.50
2023-04-12T04:16:04.883Z,5.87
2023-04-12T04:18:32.503Z,5.40
2023-04-12T04:20:59.472Z,6.00
2023-04-12T04:23:27.596Z,4.67
2023-04-12T04:25:54.347Z,5.37
2023-04-12T04:28:20.972Z,5.10
2023-04-12T04:30:47.504Z,5.07
2023-04-12T04:33:15.760Z,5.40
2023-04-12T04:35:43.653Z,4.80
2023-04-12T04:38:10.342Z,7.27
2023-04-12T04:40:38.142Z,5.50
2023-04-12T04:43:07.074Z,5.13
2023-04-12T04:45:36.271Z,5.43
2023-04-12T04:48:03.501Z,6.20
2023-04-12T04:50:30.269Z,5.10
2023-04-12T04:52:56.801Z,5.57
2023-04-12T04:55:25.283Z,7.87
2023-04-12T04:57:51.837Z,5.23
2023-04-12T05:00:18.772Z,5.30
2023-04-12T05:02:45.557Z,4.80
2023-04-12T05:05:23.189Z,5.20
2023-04-12T05:07:49.818Z,5.37
2023-04-12T05:10:16.378Z,5.57
2023-04-12T05:12:42.923Z,5.63
2023-04-12T05:15:12.294Z,5.17
2023-04-12T05:17:39.356Z,4.70
2023-04-12T05:20:08.240Z,4.93
2023-04-12T05:22:35.457Z,5.37
2023-04-12T05:25:02.607Z,4.63
2023-04-12T05:27:30.384Z,4.97
2023-04-12T05:29:57.628Z,4.57
2023-04-12T05:32:25.011Z,4.63
2023-04-12T05:34:52.185Z,4.83
2023-04-12T05:37:18.796Z,5.20
2023-04-12T05:39:45.418Z,4.50
2023-04-12T05:42:11.984Z,4.80
2023-04-12T05:44:38.894Z,4.87
2023-04-12T05:47:05.930Z,4.80
2023-04-12T05:49:32.471Z,5.00
2023-04-12T05:51:59.225Z,4.70
2023-04-12T05:54:25.816Z,4.37
2023-04-12T05:56:55.435Z,4.57
2023-04-12T05:59:22.522Z,4.50
2023-04-12T06:01:49.301Z,4.93
2023-04-12T06:04:16.105Z,4.80
2023-04-12T06:06:43.460Z,4.50
2023-04-12T06:09:10.588Z,4.47
2023-04-12T06:11:38.960Z,5.17
2023-04-12T06:14:05.823Z,4.70
2023-04-12T06:16:32.512Z,4.40
2023-04-12T06:18:59.315Z,4.27
2023-04-12T06:21:26.224Z,4.50
2023-04-12T06:23:52.752Z,4.47
2023-04-12T06:26:19.285Z,4.70
2023-04-12T06:28:45.792Z,4.90
2023-04-12T06:31:12.415Z,4.13
2023-04-12T06:33:39.102Z,4.90
2023-04-12T06:36:06.205Z,4.60
2023-04-12T06:38:32.758Z,4.60
2023-04-12T06:40:59.973Z,5.00
2023-04-12T06:43:26.580Z,4.60
2023-04-12T06:45:53.075Z,4.77
2023-04-12T06:48:19.620Z,4.60
2023-04-12T06:50:46.152Z,4.80
2023-04-12T06:53:15.577Z,5.00
2023-04-12T06:55:42.282Z,3.90
2023-04-12T06:58:09.074Z,4.87
2023-04-12T07:00:35.722Z,4.40
2023-04-12T07:03:02.377Z,4.43
2023-04-12T07:05:29.233Z,4.70
2023-04-12T07:07:55.925Z,4.50
2023-04-12T07:10:22.490Z,4.37
2023-04-12T07:12:49.497Z,5.00
2023-04-12T07:15:16.057Z,4.20
2023-04-12T07:17:42.660Z,4.60
2023-04-12T07:20:09.823Z,4.70
2023-04-12T07:22:36.307Z,4.60
2023-04-12T07:25:05.019Z,4.83
2023-04-12T07:27:31.582Z,4.80
2023-04-12T07:29:58.788Z,5.30
2023-04-12T07:32:25.749Z,5.30
2023-04-12T07:34:52.934Z,5.27
2023-04-12T07:37:20.185Z,4.93
2023-04-12T07:39:46.938Z,4.83
2023-04-12T07:42:13.560Z,4.83
2023-04-12T07:44:40.080Z,4.90
2023-04-12T07:47:07.159Z,4.97
2023-04-12T07:49:33.737Z,4.93
2023-04-12T07:52:00.297Z,4.80
2023-04-12T07:54:27.990Z,10.23
2023-04-12T07:56:59.420Z,5.03
2023-04-12T07:59:26.036Z,4.53
2023-04-12T08:01:52.806Z,4.70
2023-04-12T08:04:19.492Z,4.50
2023-04-12T08:06:46.248Z,4.57
2023-04-12T08:09:12.793Z,4.80
2023-04-12T08:11:39.352Z,4.30
2023-04-12T08:14:05.919Z,4.47
2023-04-12T08:16:33.055Z,4.37
2023-04-12T08:18:59.629Z,4.50
2023-04-12T08:21:27.504Z,4.60
2023-04-12T08:23:54.157Z,4.37
2023-04-12T08:26:21.092Z,4.60
2023-04-12T08:28:48.530Z,4.70
2023-04-12T08:31:16.200Z,4.30
2023-04-12T08:33:42.806Z,4.10
2023-04-12T08:36:10.167Z,4.00
2023-04-12T08:38:45.569Z,4.30
2023-04-12T08:41:13.845Z,4.40
2023-04-12T08:43:44.998Z,4.23
2023-04-12T08:46:15.356Z,4.53
2023-04-12T08:48:46.640Z,4.40
2023-04-12T08:51:18.073Z,4.40
2023-04-12T08:53:45.003Z,4.30
2023-04-12T08:56:12.881Z,4.33
2023-04-12T08:58:41.507Z,4.70
2023-04-12T09:01:16.078Z,4.40
2023-04-12T09:03:44.368Z,4.47
2023-04-12T09:06:12.234Z,4.97
2023-04-12T09:08:52.269Z,5.50
2023-04-12T09:11:29.299Z,6.37
2023-04-12T09:13:57.598Z,6.43
2023-04-12T09:16:54.319Z,11.13
2023-04-12T09:19:50.506Z,6.70
2023-04-12T09:22:17.271Z,10.10
2023-04-12T09:24:49.941Z,6.77
2023-04-12T09:27:20.812Z,7.60
2023-04-12T09:29:51.447Z,10.53
2023-04-12T09:32:36.845Z,7.30
2023-04-12T09:35:05.318Z,8.43
2023-04-12T09:37:31.985Z,9.80
2023-04-12T09:40:07.158Z,10.40
2023-04-12T09:42:35.139Z,8.00
2023-04-12T09:45:21.895Z,6.50
2023-04-12T09:47:49.007Z,11.97
2023-04-12T09:50:23.479Z,14.03
2023-04-12T09:52:50.827Z,6.27
2023-04-12T09:55:18.074Z,9.77
2023-04-12T09:57:45.410Z,6.83
2023-04-12T10:00:20.183Z,10.20
2023-04-12T10:02:51.704Z,11.83
2023-04-12T10:05:21.018Z,10.83
2023-04-12T10:07:48.179Z,9.63
2023-04-12T10:10:16.981Z,8.53
2023-04-12T10:12:45.824Z,7.27
2023-04-12T10:15:13.500Z,8.33
2023-04-12T10:17:52.204Z,10.07
2023-04-12T10:20:20.552Z,8.00
2023-04-12T10:22:49.572Z,9.63
2023-04-12T10:25:22.849Z,9.30
2023-04-12T10:27:49.546Z,8.03
2023-04-12T10:30:36.580Z,14.87
2023-04-12T10:33:03.317Z,11.53
2023-04-12T10:35:31.649Z,10.47
2023-04-12T10:37:59.265Z,12.90
2023-04-12T10:40:25.958Z,13.73
2023-04-12T10:43:18.511Z,18.03
2023-04-12T10:45:45.836Z,14.63
2023-04-12T10:48:31.751Z,12.53
2023-04-12T10:51:28.514Z,9.07
2023-04-12T10:54:07.372Z,11.47
2023-04-12T10:56:44.926Z,10.43
2023-04-12T10:59:12.784Z,6.47
2023-04-12T11:01:40.534Z,11.03
2023-04-12T11:04:21.380Z,15.20
2023-04-12T11:06:49.372Z,13.70
2023-04-12T11:09:25.519Z,12.47
2023-04-12T11:12:05.214Z,14.20
2023-04-12T11:14:38.601Z,10.87
2023-04-12T11:17:08.280Z,12.13
2023-04-12T11:19:40.190Z,14.57
2023-04-12T11:22:09.331Z,11.73
2023-04-12T11:24:39.942Z,10.80
2023-04-12T11:27:06.733Z,10.80
2023-04-12T11:29:34.169Z,12.43
2023-04-12T11:32:04.090Z,10.97
2023-04-12T11:34:35.333Z,14.70
2023-04-12T11:37:05.671Z,9.90
2023-04-12T11:39:33.355Z,15.40
2023-04-12T11:42:01.822Z,13.53
2023-04-12T11:44:30.652Z,12.67
2023-04-12T11:47:04.063Z,10.33
2023-04-12T11:49:30.867Z,11.93
2023-04-12T11:52:05.032Z,13.00
2023-04-12T11:54:31.842Z,11.33
2023-04-12T11:56:58.567Z,14.70
2023-04-12T11:59:35.507Z,18.63
2023-04-12T12:02:10.887Z,10.27
2023-04-12T12:04:48.933Z,17.67
2023-04-12T12:07:17.856Z,13.90
2023-04-12T12:09:45.990Z,15.27
2023-04-12T12:12:13.694Z,13.83
2023-04-12T12:14:40.710Z,13.20
2023-04-12T12:17:15.607Z,10.33
2023-04-12T12:19:44.562Z,14.20
2023-04-12T12:22:14.147Z,17.00
2023-04-12T12:24:47.211Z,17.77
2023-04-12T12:27:17.517Z,12.23
2023-04-12T12:29:44.541Z,11.03
2023-04-12T12:32:14.997Z,14.53
2023-04-12T12:34:41.833Z,15.20
2023-04-12T12:37:11.489Z,10.60
2023-04-12T12:39:38.520Z,10.93
2023-04-12T12:42:07.883Z,14.33
2023-04-12T12:44:37.552Z,15.40
2023-04-12T12:47:13.880Z,14.63
2023-04-12T12:49:41.356Z,12.90
2023-04-12T12:52:07.889Z,14.80
2023-04-12T12:54:40.566Z,15.57
2023-04-12T12:57:08.047Z,11.83
2023-04-12T12:59:34.896Z,13.20
2023-04-12T13:02:01.668Z,10.50
2023-04-12T13:04:28.906Z,8.47
2023-04-12T13:06:55.610Z,5.90
2023-04-12T13:09:22.310Z,4.90
2023-04-12T13:11:48.840Z,7.20
2023-04-12T13:14:15.373Z,6.40
2023-04-12T13:16:41.955Z,5.73
2023-04-12T13:19:08.505Z,5.10
2023-04-12T13:21:35.109Z,5.50
2023-04-12T13:24:01.655Z,6.67
2023-04-12T13:26:28.194Z,6.20
2023-04-12T13:28:54.692Z,6.00
2023-04-12T13:31:21.211Z,5.13
2023-04-12T13:33:47.804Z,7.57
2023-04-12T13:36:14.330Z,6.67
2023-04-12T13:38:40.896Z,7.73
2023-04-12T13:41:07.790Z,6.37
2023-04-12T13:43:34.290Z,9.60
2023-04-12T13:46:00.947Z,5.13
2023-04-12T13:48:27.496Z,12.47
2023-04-12T13:50:55.546Z,6.20
2023-04-12T13:53:22.320Z,9.27
2023-04-12T13:55:50.147Z,4.93
2023-04-12T13:58:18.225Z,7.03
2023-04-12T14:00:44.747Z,5.43
2023-04-12T14:03:11.493Z,8.17
2023-04-12T14:05:38.117Z,5.97
2023-04-12T14:08:04.658Z,5.73
2023-04-12T14:10:31.212Z,6.93
2023-04-12T14:12:57.753Z,6.80
2023-04-12T14:15:24.249Z,8.20
2023-04-12T14:17:50.801Z,6.27
2023-04-12T14:20:19.387Z,8.20
2023-04-12T14:22:46.297Z,5.10
2023-04-12T14:25:12.838Z,6.20
2023-04-12T14:27:39.397Z,4.60
2023-04-12T14:30:07.208Z,8.73
2023-04-12T14:32:34.205Z,5.03
2023-04-12T14:35:00.970Z,4.53
2023-04-12T14:37:27.577Z,4.67
2023-04-12T14:39:54.319Z,4.93
2023-04-12T14:42:21.083Z,5.40
2023-04-12T14:44:47.641Z,5.47
2023-04-12T14:47:14.178Z,4.40
2023-04-12T14:49:40.768Z,5.83
2023-04-12T14:52:07.870Z,5.50
2023-04-12T14:54:34.401Z,5.03
2023-04-12T14:57:00.923Z,4.60
2023-04-12T14:59:27.504Z,3.90
2023-04-12T15:01:54.292Z,6.00
2023-04-12T15:04:21.362Z,5.10
2023-04-12T15:06:47.943Z,4.00
2023-04-12T15:09:17.429Z,3.70
2023-04-12T15:11:46.088Z,4.20
2023-04-12T15:14:19.676Z,4.37
2023-04-12T15:16:48.878Z,4.73
2023-04-12T15:19:20.817Z,4.17
2023-04-12T15:21:51.144Z,4.23
2023-04-12T15:24:22.309Z,4.43
2023-04-12T15:26:50.602Z,4.30
2023-04-12T15:29:17.456Z,4.93
2023-04-12T15:31:44.188Z,4.70
2023-04-12T15:34:11.366Z,4.80
2023-04-12T15:36:38.067Z,4.93
2023-04-12T15:39:04.869Z,5.00
2023-04-12T15:41:34.964Z,5.23
2023-04-12T15:44:01.535Z,5.03
2023-04-12T15:46:28.136Z,4.53
2023-04-12T15:48:54.718Z,5.53
2023-04-12T15:51:21.341Z,4.87
2023-04-12T15:53:48.087Z,4.50
2023-04-12T15:56:19.686Z,4.70
2023-04-12T15:58:46.573Z,3.90
2023-04-12T16:01:13.229Z,3.97
2023-04-12T16:03:39.920Z,3.97
2023-04-12T16:06:07.442Z,3.87
2023-04-12T16:08:33.977Z,3.80
2023-04-12T16:11:00.484Z,3.80
2023-04-12T16:13:27.172Z,4.13
2023-04-12T16:15:53.748Z,4.20
2023-04-12T16:18:20.393Z,4.27
2023-04-12T16:20:47.150Z,3.93
2023-04-12T16:23:13.759Z,3.70
2023-04-12T16:25:40.892Z,3.80
2023-04-12T16:28:07.932Z,4.10
2023-04-12T16:30:35.063Z,3.80
2023-04-12T16:33:01.869Z,4.20
2023-04-12T16:35:28.543Z,3.87
2023-04-12T16:37:55.381Z,3.93
2023-04-12T16:40:22.080Z,4.07
2023-04-12T16:42:48.623Z,4.10
2023-04-12T16:45:15.444Z,4.17
2023-04-12T16:47:42.228Z,3.15
2023-04-12T16:50:09.621Z,3.97
2023-04-12T16:52:36.628Z,4.00
2023-04-12T16:55:04.791Z,4.20
2023-04-12T16:57:32.720Z,3.73
2023-04-12T16:59:59.397Z,3.83
2023-04-12T17:02:26.549Z,4.07
2023-04-12T17:04:53.259Z,4.40
2023-04-12T17:07:19.888Z,4.83
2023-04-12T17:09:46.529Z,4.27
2023-04-12T17:12:13.096Z,4.03
2023-04-12T17:14:39.937Z,4.10
2023-04-12T17:17:06.803Z,4.10
2023-04-12T17:19:33.765Z,3.60
2023-04-12T17:22:00.827Z,4.20
2023-04-12T17:24:28.853Z,4.20
2023-04-12T17:26:55.524Z,5.33
2023-04-12T17:29:22.271Z,4.93
2023-04-12T17:31:50.626Z,12.20
2023-04-12T17:34:19.802Z,5.40
2023-04-12T17:36:46.629Z,5.40
2023-04-12T17:39:13.277Z,5.73
2023-04-12T17:41:39.924Z,5.57
2023-04-12T17:44:06.633Z,5.27
2023-04-12T17:46:34.639Z,5.60
2023-04-12T17:49:03.880Z,5.70
2023-04-12T17:51:32.028Z,7.67
2023-04-12T17:54:00.191Z,5.80
2023-04-12T17:56:26.736Z,5.20
2023-04-12T17:58:53.315Z,5.23
2023-04-12T18:01:19.858Z,6.03
2023-04-12T18:03:47.483Z,4.87
2023-04-12T18:06:14.843Z,5.23
2023-04-12T18:08:41.345Z,5.17
2023-04-12T18:11:07.942Z,6.27
2023-04-12T18:13:34.535Z,5.53
2023-04-12T18:16:01.369Z,5.77
2023-04-12T18:18:28.106Z,5.97
2023-04-12T18:20:54.722Z,6.13
2023-04-12T18:23:21.409Z,5.57
2023-04-12T18:25:48.039Z,5.27
2023-04-12T18:28:14.925Z,6.57
2023-04-12T18:30:41.482Z,6.63
2023-04-12T18:33:08.330Z,6.53
2023-04-12T18:35:37.156Z,6.47
2023-04-12T18:38:03.852Z,6.60
2023-04-12T18:40:30.404Z,7.40
2023-04-12T18:42:56.955Z,6.43
2023-04-12T18:45:23.762Z,7.50
2023-04-12T18:47:52.781Z,6.40
2023-04-12T18:50:19.553Z,6.47
2023-04-12T18:52:46.128Z,6.37
2023-04-12T18:55:13.209Z,7.17
2023-04-12T18:57:40.113Z,6.77
2023-04-12T19:00:13.657Z,6.43
2023-04-12T19:02:40.876Z,7.60
2023-04-12T19:05:10.088Z,7.10
2023-04-12T19:07:37.323Z,7.20
2023-04-12T19:10:04.223Z,7.13
2023-04-12T19:12:31.594Z,7.43
2023-04-12T19:14:58.230Z,8.53
2023-04-12T19:17:27.863Z,6.73
2023-04-12T19:19:54.794Z,7.47
2023-04-12T19:22:27.664Z,6.07
2023-04-12T19:24:54.736Z,6.03
2023-04-12T19:27:22.702Z,8.27
2023-04-12T19:29:51.350Z,6.03
2023-04-12T19:32:18.645Z,6.80
2023-04-12T19:34:48.148Z,6.50
2023-04-12T19:37:14.778Z,7.23
2023-04-12T19:39:41.745Z,6.60
2023-04-12T19:42:08.259Z,6.63
2023-04-12T19:44:34.793Z,8.50
2023-04-12T19:47:01.500Z,7.27
2023-04-12T19:49:28.577Z,8.03
2023-04-12T19:51:55.126Z,7.23
2023-04-12T19:54:25.408Z,7.10
2023-04-12T19:56:53.289Z,9.37
2023-04-12T19:59:20.831Z,8.30
2023-04-12T20:01:48.206Z,10.33
2023-04-12T20:04:20.469Z,7.87
2023-04-12T20:06:49.230Z,7.63
2023-04-12T20:09:16.140Z,7.60
2023-04-12T20:11:42.843Z,7.97
2023-04-12T20:14:09.498Z,7.57
2023-04-12T20:16:37.772Z,7.20
2023-04-12T20:19:05.024Z,7.23
2023-04-12T20:21:33.973Z,7.70
2023-04-12T20:24:02.052Z,7.93
2023-04-12T20:26:31.552Z,8.07
2023-04-12T20:29:01.272Z,7.73
2023-04-12T20:31:28.321Z,10.07
2023-04-12T20:33:55.914Z,7.43
2023-04-12T20:36:23.147Z,7.70
2023-04-12T20:38:50.784Z,7.87
2023-04-12T20:41:17.528Z,7.27
2023-04-12T20:43:46.371Z,6.67
2023-04-12T20:46:18.750Z,6.63
2023-04-12T20:48:47.593Z,6.23
2023-04-12T20:51:20.897Z,7.30
2023-04-12T20:53:47.733Z,6.83
2023-04-12T20:56:15.136Z,6.90
2023-04-12T20:58:41.731Z,7.53
2023-04-12T21:01:14.835Z,6.63
2023-04-12T21:03:43.272Z,5.20
2023-04-12T21:06:10.600Z,5.50
2023-04-12T21:08:37.895Z,4.97
2023-04-12T21:11:04.880Z,5.90
2023-04-12T21:13:31.424Z,5.50
2023-04-12T21:15:59.022Z,5.80
2023-04-12T21:18:25.589Z,5.50
2023-04-12T21:20:52.589Z,5.57
2023-04-12T21:23:19.110Z,5.57
2023-04-12T21:25:50.667Z,5.80
2023-04-12T21:28:17.939Z,5.77
2023-04-12T21:30:44.620Z,5.63
2023-04-12T21:33:21.638Z,6.00
2023-04-12T21:35:48.170Z,5.93
2023-04-12T21:38:14.714Z,5.90
2023-04-12T21:40:41.491Z,6.20
2023-04-12T21:43:08.019Z,5.77
2023-04-12T21:45:34.654Z,5.80
2023-04-12T21:48:01.249Z,7.33
2023-04-12T21:50:27.829Z,5.67
2023-04-12T21:52:54.796Z,6.20
2023-04-12T21:55:21.602Z,6.30
2023-04-12T21:57:48.132Z,6.33
2023-04-12T22:00:15.697Z,5.60
2023-04-12T22:02:42.369Z,5.77
2023-04-12T22:05:09.394Z,6.07
2023-04-12T22:07:40.642Z,6.20
2023-04-12T22:10:09.242Z,6.30
2023-04-12T22:12:39.027Z,6.30
2023-04-12T22:15:06.397Z,6.27
2023-04-12T22:17:33.226Z,6.60
2023-04-12T22:19:59.816Z,6.13
2023-04-12T22:22:31.574Z,6.23
2023-04-12T22:24:58.081Z,6.00
2023-04-12T22:27:26.352Z,5.60
2023-04-12T22:29:53.443Z,5.93
2023-04-12T22:32:19.954Z,6.13
2023-04-12T22:34:48.285Z,6.57
2023-04-12T22:37:16.749Z,5.93
2023-04-12T22:39:43.311Z,7.47
2023-04-12T22:42:09.828Z,6.20
2023-04-12T22:44:38.347Z,5.80
2023-04-12T22:47:07.058Z,9.93
2023-04-12T22:49:45.266Z,5.57
2023-04-12T22:52:11.974Z,5.43
2023-04-12T22:54:38.784Z,5.60
2023-04-12T22:57:06.099Z,6.23
2023-04-12T22:59:32.915Z,6.50
2023-04-12T23:01:59.537Z,5.83
2023-04-12T23:04:26.221Z,5.90
2023-04-12T23:06:56.942Z,7.33
2023-04-12T23:09:23.658Z,6.30
2023-04-12T23:11:51.446Z,6.10
2023-04-12T23:14:17.988Z,5.70
2023-04-12T23:16:46.121Z,6.50
2023-04-12T23:19:14.493Z,6.80
2023-04-12T23:21:41.850Z,6.33
2023-04-12T23:24:11.898Z,5.67
2023-04-12T23:26:38.512Z,6.13
2023-04-12T23:29:05.089Z,6.13
2023-04-12T23:31:34.549Z,6.67
2023-04-12T23:34:05.778Z,6.13
2023-04-12T23:36:33.369Z,17.97
2023-04-12T23:39:06.077Z,9.37
2023-04-12T23:41:33.498Z,5.67
2023-04-12T23:44:00.889Z,5.70
2023-04-12T23:46:27.960Z,5.57
2023-04-12T23:48:54.667Z,5.63
2023-04-12T23:51:22.047Z,5.67
2023-04-12T23:53:48.664Z,6.40
2023-04-12T23:56:15.679Z,5.90
2023-04-12T23:58:42.185Z,5.60
